createdAt,value
2022-11-21T00:00:41.546Z,85.16
2022-11-21T00:03:10.236Z,83.80
2022-11-21T00:05:41.477Z,83.42
2022-11-21T00:08:08.676Z,83.28
2022-11-21T00:10:36.645Z,83.90
2022-11-21T00:13:03.245Z,83.81
2022-11-21T00:15:29.738Z,84.20
2022-11-21T00:17:56.524Z,85.36
2022-11-21T00:20:23.225Z,85.94
2022-11-21T00:22:50.443Z,86.85
2022-11-21T00:25:16.965Z,87.17
2022-11-21T00:27:43.438Z,87.25
2022-11-21T00:30:11.302Z,87.57
2022-11-21T00:32:38.460Z,87.94
2022-11-21T00:35:06.016Z,88.44
2022-11-21T00:37:33.366Z,88.91
2022-11-21T00:40:00.006Z,88.96
2022-11-21T00:42:26.954Z,89.40
2022-11-21T00:44:53.577Z,89.88
2022-11-21T00:47:20.034Z,90.24
2022-11-21T00:49:46.526Z,90.34
2022-11-21T00:52:13.010Z,90.28
2022-11-21T00:54:39.527Z,90.98
2022-11-21T00:57:05.990Z,91.22
2022-11-21T00:59:32.495Z,91.22
2022-11-21T01:01:59.224Z,91.15
2022-11-21T01:04:26.414Z,90.87
2022-11-21T01:06:54.012Z,90.57
2022-11-21T01:09:20.748Z,90.85
2022-11-21T01:11:47.195Z,91.17
2022-11-21T01:14:13.931Z,91.15
2022-11-21T01:16:40.431Z,90.96
2022-11-21T01:19:06.924Z,91.19
2022-11-21T01:21:33.389Z,90.97
2022-11-21T01:24:01.212Z,90.62
2022-11-21T01:26:29.882Z,90.27
2022-11-21T01:28:57.906Z,90.03
2022-11-21T01:31:27.147Z,89.93
2022-11-21T01:33:54.969Z,89.66
2022-11-21T01:36:24.998Z,89.75
2022-11-21T01:38:53.466Z,89.87
2022-11-21T01:41:23.070Z,89.45
2022-11-21T01:43:50.370Z,90.01
2022-11-21T01:46:21.911Z,89.79
2022-11-21T01:49:11.959Z,89.59
2022-11-21T01:51:54.092Z,89.15
2022-11-21T01:54:27.100Z,89.44
2022-11-21T01:57:04.003Z,89.64
2022-11-21T01:59:38.963Z,90.09
2022-11-21T02:02:09.108Z,89.71
2022-11-21T02:04:36.809Z,89.95
2022-11-21T02:07:06.403Z,90.21
2022-11-21T02:09:36.001Z,90.78
2022-11-21T02:12:08.082Z,90.94
2022-11-21T02:14:37.195Z,90.76
2022-11-21T02:17:07.969Z,90.94
2022-11-21T02:19:38.871Z,91.09
2022-11-21T02:22:20.536Z,91.46
2022-11-21T02:25:27.927Z,91.16
2022-11-21T02:28:01.936Z,91.53
2022-11-21T02:30:31.693Z,91.30
2022-11-21T02:32:58.748Z,91.15
2022-11-21T02:35:25.760Z,91.69
2022-11-21T02:37:59.513Z,91.75
2022-11-21T02:40:31.905Z,92.04
2022-11-21T02:43:21.930Z,91.88
2022-11-21T02:45:48.665Z,92.06
2022-11-21T02:48:15.760Z,92.48
2022-11-21T02:50:44.143Z,92.28
2022-11-21T02:53:13.639Z,91.94
2022-11-21T02:55:40.569Z,92.19
2022-11-21T02:58:07.857Z,92.82
2022-11-21T03:00:36.305Z,92.77
2022-11-21T03:03:02.860Z,92.81
2022-11-21T03:05:29.875Z,92.85
2022-11-21T03:07:56.677Z,92.80
2022-11-21T03:10:23.216Z,92.90
2022-11-21T03:12:49.709Z,93.47
2022-11-21T03:15:16.616Z,93.35
2022-11-21T03:17:43.628Z,93.59
2022-11-21T03:20:10.675Z,94.12
2022-11-21T03:22:37.169Z,93.78
2022-11-21T03:25:04.162Z,93.50
2022-11-21T03:27:30.909Z,93.45
2022-11-21T03:29:57.368Z,93.79
2022-11-21T03:32:24.112Z,93.76
2022-11-21T03:34:50.735Z,93.75
2022-11-21T03:37:17.193Z,93.81
2022-11-21T03:39:43.819Z,93.76
2022-11-21T03:42:10.483Z,94.02
2022-11-21T03:44:36.975Z,94.42
2022-11-21T03:47:03.611Z,94.55
2022-11-21T03:49:30.054Z,94.50
2022-11-21T03:51:56.768Z,94.64
2022-11-21T03:54:23.335Z,95.10
2022-11-21T03:56:49.810Z,94.79
2022-11-21T03:59:16.580Z,94.67
2022-11-21T04:01:43.114Z,94.96
2022-11-21T04:04:09.635Z,94.80
2022-11-21T04:06:36.114Z,94.54
2022-11-21T04:09:03.143Z,94.51
2022-11-21T04:11:29.683Z,94.55
2022-11-21T04:13:56.484Z,95.02
2022-11-21T04:16:23.162Z,95.06
2022-11-21T04:18:49.631Z,94.53
2022-11-21T04:21:16.088Z,94.52
2022-11-21T04:23:42.540Z,94.98
2022-11-21T04:26:09.001Z,94.79
2022-11-21T04:28:35.524Z,94.74
2022-11-21T04:31:09.891Z,94.47
2022-11-21T04:33:38.273Z,94.13
2022-11-21T04:36:04.966Z,93.98
2022-11-21T04:38:31.432Z,94.15
2022-11-21T04:40:57.939Z,93.58
2022-11-21T04:43:24.647Z,94.14
2022-11-21T04:45:51.112Z,94.27
2022-11-21T04:48:17.644Z,94.30
2022-11-21T04:50:45.867Z,94.23
2022-11-21T04:53:12.946Z,93.91
2022-11-21T04:55:39.561Z,94.35
2022-11-21T04:58:06.024Z,93.86
2022-11-21T05:00:32.515Z,93.80
2022-11-21T05:03:06.374Z,93.90
2022-11-21T05:05:33.275Z,94.07
2022-11-21T05:08:00.104Z,94.12
2022-11-21T05:10:28.179Z,93.74
2022-11-21T05:13:17.867Z,93.34
2022-11-21T05:15:44.708Z,93.80
2022-11-21T05:18:11.858Z,93.67
2022-11-21T05:20:38.389Z,94.41
2022-11-21T05:23:04.911Z,94.61
2022-11-21T05:25:31.378Z,94.25
2022-11-21T05:27:58.435Z,94.60
2022-11-21T05:30:25.018Z,94.53
2022-11-21T05:32:51.491Z,94.13
2022-11-21T05:35:17.992Z,94.46
2022-11-21T05:37:44.446Z,94.15
2022-11-21T05:40:11.718Z,94.63
2022-11-21T05:43:01.212Z,94.27
2022-11-21T05:45:27.713Z,94.59
2022-11-21T05:47:54.454Z,94.98
2022-11-21T05:50:21.077Z,94.93
2022-11-21T05:52:47.532Z,93.79
2022-11-21T05:55:14.129Z,94.03
2022-11-21T05:57:40.606Z,94.26
2022-11-21T06:00:07.754Z,94.46
2022-11-21T06:02:52.720Z,94.34
2022-11-21T06:05:19.262Z,94.13
2022-11-21T06:07:45.798Z,94.63
2022-11-21T06:10:12.288Z,94.31
2022-11-21T06:12:39.073Z,94.33
2022-11-21T06:15:05.851Z,95.30
2022-11-21T06:17:32.581Z,94.68
2022-11-21T06:19:59.051Z,95.16
2022-11-21T06:22:25.791Z,95.03
2022-11-21T06:24:52.240Z,95.61
2022-11-21T06:27:18.697Z,95.93
2022-11-21T06:29:45.134Z,96.28
2022-11-21T06:32:11.962Z,96.72
2022-11-21T06:34:38.497Z,97.07
2022-11-21T06:37:05.041Z,97.00
2022-11-21T06:39:31.564Z,97.17
2022-11-21T06:41:58.951Z,97.33
2022-11-21T06:44:26.045Z,97.31
2022-11-21T06:46:52.732Z,97.45
2022-11-21T06:49:19.303Z,97.84
2022-11-21T06:51:45.798Z,97.48
2022-11-21T06:54:16.440Z,97.84
2022-11-21T06:56:44.180Z,98.12
2022-11-21T06:59:11.455Z,97.86
2022-11-21T07:01:38.378Z,98.30
2022-11-21T07:04:04.992Z,98.33
2022-11-21T07:06:31.442Z,98.08
2022-11-21T07:09:30.822Z,98.20
2022-11-21T07:11:44.515Z,98.29
2022-11-21T07:14:11.034Z,98.05
2022-11-21T07:16:37.485Z,98.21
2022-11-21T07:19:04.254Z,98.39
2022-11-21T07:21:31.046Z,97.76
2022-11-21T07:23:57.660Z,98.05
2022-11-21T07:26:24.685Z,98.07
2022-11-21T07:28:51.155Z,98.36
2022-11-21T07:31:17.657Z,97.83
2022-11-21T07:33:44.364Z,97.36
2022-11-21T07:36:12.835Z,96.99
2022-11-21T07:38:41.199Z,97.07
2022-11-21T07:41:08.094Z,97.07
2022-11-21T07:43:34.555Z,97.54
2022-11-21T07:46:01.921Z,97.87
2022-11-21T07:48:28.640Z,98.23
2022-11-21T07:50:55.117Z,97.99
2022-11-21T07:53:21.638Z,97.85
2022-11-21T07:55:48.259Z,98.04
2022-11-21T07:58:16.403Z,97.90
2022-11-21T08:00:43.226Z,97.77
2022-11-21T08:03:12.179Z,97.61
2022-11-21T08:05:43.572Z,97.47
2022-11-21T08:08:11.981Z,97.11
2022-11-21T08:10:43.318Z,97.13
2022-11-21T08:13:10.595Z,97.06
2022-11-21T08:15:38.002Z,97.31
2022-11-21T08:18:15.330Z,96.98
2022-11-21T08:20:42.742Z,97.29
2022-11-21T08:23:10.871Z,96.96
2022-11-21T08:25:38.685Z,97.35
2022-11-21T08:28:06.458Z,96.87
2022-11-21T08:30:33.583Z,96.88
2022-11-21T08:33:03.914Z,96.60
2022-11-21T08:35:30.864Z,96.15
2022-11-21T08:37:58.672Z,96.25
2022-11-21T08:40:26.815Z,96.21
2022-11-21T08:43:01.179Z,95.32
2022-11-21T08:45:28.364Z,95.77
2022-11-21T08:47:55.680Z,95.07
2022-11-21T08:50:23.913Z,94.69
2022-11-21T08:52:50.919Z,95.22
2022-11-21T08:55:17.919Z,95.62
2022-11-21T08:57:44.421Z,95.73
2022-11-21T09:00:14.908Z,95.68
2022-11-21T09:02:41.504Z,95.39
2022-11-21T09:05:08.620Z,95.14
2022-11-21T09:07:38.390Z,95.25
2022-11-21T09:10:05.721Z,95.06
2022-11-21T09:12:32.157Z,95.11
2022-11-21T09:15:17.427Z,94.97
2022-11-21T09:18:02.615Z,95.53
2022-11-21T09:20:29.863Z,95.30
2022-11-21T09:22:57.117Z,95.62
2022-11-21T09:25:24.163Z,95.21
2022-11-21T09:27:50.627Z,95.04
2022-11-21T09:30:17.336Z,95.28
2022-11-21T09:32:43.824Z,95.41
2022-11-21T09:35:10.322Z,94.82
2022-11-21T09:37:38.105Z,94.89
2022-11-21T09:40:08.117Z,95.34
2022-11-21T09:43:02.582Z,94.92
2022-11-21T09:45:44.283Z,94.88
2022-11-21T09:48:15.784Z,94.67
2022-11-21T09:50:53.808Z,94.57
2022-11-21T09:53:35.471Z,94.80
2022-11-21T09:56:11.194Z,94.37
2022-11-21T09:58:42.324Z,95.11
2022-11-21T10:01:16.848Z,94.59
2022-11-21T10:03:49.289Z,94.32
2022-11-21T10:06:21.570Z,94.11
2022-11-21T10:09:15.468Z,94.19
2022-11-21T10:12:13.146Z,94.52
2022-11-21T10:14:51.930Z,94.05
2022-11-21T10:17:27.757Z,93.93
2022-11-21T10:20:03.083Z,94.23
2022-11-21T10:22:44.317Z,93.78
2022-11-21T10:25:38.096Z,93.87
2022-11-21T10:28:15.597Z,93.62
2022-11-21T10:30:45.368Z,93.26
2022-11-21T10:33:23.998Z,92.44
2022-11-21T10:35:57.685Z,92.28
2022-11-21T10:38:27.153Z,92.35
2022-11-21T10:41:01.231Z,92.53
2022-11-21T10:44:05.768Z,91.23
2022-11-21T10:46:32.244Z,90.79
2022-11-21T10:49:04.679Z,91.07
2022-11-21T10:51:40.765Z,90.41
2022-11-21T10:54:29.129Z,89.74
2022-11-21T10:57:14.131Z,90.53
2022-11-21T10:59:40.946Z,90.18
2022-11-21T11:02:13.249Z,89.60
2022-11-21T11:04:47.308Z,88.94
2022-11-21T11:07:28.744Z,88.76
2022-11-21T11:10:16.316Z,87.75
2022-11-21T11:13:08.706Z,87.85
2022-11-21T11:16:01.338Z,87.42
2022-11-21T11:18:31.367Z,86.22
2022-11-21T11:21:26.238Z,86.75
2022-11-21T11:23:54.901Z,86.26
2022-11-21T11:26:25.041Z,85.69
2022-11-21T11:28:51.526Z,85.62
2022-11-21T11:31:18.218Z,84.95
2022-11-21T11:33:47.690Z,85.67
2022-11-21T11:36:26.190Z,84.89
2022-11-21T11:38:56.213Z,84.08
2022-11-21T11:42:02.660Z,83.51
2022-11-21T11:45:26.050Z,83.46
2022-11-21T11:47:59.132Z,82.41
2022-11-21T11:50:41.552Z,82.24
2022-11-21T11:53:20.013Z,82.38
2022-11-21T11:56:08.608Z,82.72
2022-11-21T11:58:49.661Z,82.04
2022-11-21T12:01:26.076Z,81.46
2022-11-21T12:04:16.397Z,81.81
2022-11-21T12:07:52.803Z,81.32
2022-11-21T12:10:04.853Z,80.93
2022-11-21T12:12:37.185Z,80.63
2022-11-21T12:15:36.334Z,79.99
2022-11-21T12:18:18.673Z,79.85
2022-11-21T12:20:56.289Z,79.95
2022-11-21T12:23:47.778Z,79.68
2022-11-21T12:26:20.469Z,79.31
2022-11-21T12:29:20.764Z,79.29
2022-11-21T12:32:08.880Z,79.02
2022-11-21T12:34:50.644Z,78.73
2022-11-21T12:37:55.509Z,79.27
2022-11-21T12:40:48.931Z,78.91
2022-11-21T12:43:23.812Z,78.88
2022-11-21T12:46:20.759Z,78.78
2022-11-21T12:49:17.918Z,78.94
2022-11-21T12:52:19.350Z,79.06
2022-11-21T12:55:23.830Z,78.28
2022-11-21T12:58:22.238Z,78.08
2022-11-21T13:01:21.460Z,77.91
2022-11-21T13:04:09.511Z,76.95
2022-11-21T13:06:40.385Z,77.23
2022-11-21T13:09:13.436Z,77.16
2022-11-21T13:11:59.269Z,77.08
2022-11-21T13:14:36.433Z,76.30
2022-11-21T13:17:06.934Z,77.12
2022-11-21T13:19:44.029Z,77.50
2022-11-21T13:22:35.374Z,77.13
2022-11-21T13:25:24.521Z,77.03
2022-11-21T13:27:52.408Z,77.34
2022-11-21T13:30:22.489Z,77.49
2022-11-21T13:32:55.376Z,76.98
2022-11-21T13:35:21.803Z,77.02
2022-11-21T13:38:13.064Z,76.65
2022-11-21T13:41:00.563Z,77.02
2022-11-21T13:43:35.476Z,76.87
2022-11-21T13:46:02.327Z,77.11
2022-11-21T13:48:30.549Z,76.83
2022-11-21T13:51:35.728Z,76.17
2022-11-21T13:54:32.647Z,76.30
2022-11-21T13:57:24.953Z,76.18
2022-11-21T14:00:06.498Z,76.95
2022-11-21T14:03:10.248Z,76.20
2022-11-21T14:05:47.904Z,76.98
2022-11-21T14:08:22.985Z,77.45
2022-11-21T14:10:58.930Z,77.74
2022-11-21T14:13:37.927Z,78.12
2022-11-21T14:16:35.058Z,78.18
2022-11-21T14:19:05.379Z,78.96
2022-11-21T14:21:33.973Z,78.95
2022-11-21T14:24:04.729Z,79.14
2022-11-21T14:26:47.198Z,79.75
2022-11-21T14:29:26.708Z,79.96
2022-11-21T14:31:54.601Z,80.62
2022-11-21T14:34:26.536Z,80.84
2022-11-21T14:36:53.589Z,81.00
2022-11-21T14:39:44.139Z,81.57
2022-11-21T14:42:14.551Z,82.21
2022-11-21T14:44:41.284Z,81.99
2022-11-21T14:47:23.601Z,82.45
2022-11-21T14:49:55.388Z,83.13
2022-11-21T14:52:31.637Z,83.42
2022-11-21T14:57:49.047Z,83.96
2022-11-21T15:03:19.794Z,84.59
2022-11-21T15:06:01.792Z,84.76
2022-11-21T15:09:03.245Z,85.31
2022-11-21T15:11:19.208Z,85.48
2022-11-21T15:14:12.875Z,86.07
2022-11-21T15:16:37.471Z,86.63
2022-11-21T15:19:11.158Z,87.10
2022-11-21T15:21:43.530Z,87.07
2022-11-21T15:24:31.683Z,87.07
2022-11-21T15:26:59.495Z,87.41
2022-11-21T15:29:27.182Z,87.69
2022-11-21T15:32:06.899Z,87.54
2022-11-21T15:34:48.030Z,88.19
2022-11-21T15:37:17.477Z,88.07
2022-11-21T15:39:46.118Z,88.24
2022-11-21T15:42:31.614Z,88.58
2022-11-21T15:45:05.724Z,88.53
2022-11-21T15:47:32.193Z,88.30
2022-11-21T15:49:58.710Z,88.71
2022-11-21T15:52:25.696Z,88.63
2022-11-21T15:54:52.216Z,89.50
2022-11-21T15:59:50.543Z,88.62
2022-11-21T16:02:17.043Z,89.12
2022-11-21T16:04:43.597Z,89.43
2022-11-21T16:07:10.157Z,89.72
2022-11-21T16:09:37.391Z,89.49
2022-11-21T16:12:04.094Z,89.15
2022-11-21T16:14:30.724Z,89.04
2022-11-21T16:16:57.356Z,88.71
2022-11-21T16:19:24.030Z,88.90
2022-11-21T16:21:50.643Z,88.95
2022-11-21T16:24:17.186Z,89.50
2022-11-21T16:26:43.618Z,89.23
2022-11-21T16:29:10.774Z,89.78
2022-11-21T16:31:37.627Z,89.47
2022-11-21T16:34:04.194Z,88.83
2022-11-21T16:36:32.265Z,89.44
2022-11-21T16:39:07.821Z,89.24
2022-11-21T16:41:35.707Z,89.56
2022-11-21T16:44:02.635Z,88.97
2022-11-21T16:46:29.392Z,89.47
2022-11-21T16:49:02.842Z,89.77
2022-11-21T16:51:30.082Z,88.76
2022-11-21T16:54:01.604Z,89.33
2022-11-21T16:56:30.821Z,89.15
2022-11-21T16:58:57.625Z,89.66
2022-11-21T17:01:26.887Z,89.84
2022-11-21T17:03:53.474Z,89.87
2022-11-21T17:06:29.224Z,90.05
2022-11-21T17:08:55.928Z,89.70
2022-11-21T17:11:29.348Z,89.80
2022-11-21T17:14:04.927Z,90.36
2022-11-21T17:16:32.840Z,90.06
2022-11-21T17:19:01.993Z,89.85
2022-11-21T17:21:29.347Z,90.18
2022-11-21T17:23:55.899Z,90.14
2022-11-21T17:26:24.715Z,90.06
2022-11-21T17:28:55.828Z,90.70
2022-11-21T17:31:23.009Z,90.86
2022-11-21T17:33:54.836Z,91.21
2022-11-21T17:36:26.728Z,90.33
2022-11-21T17:38:53.813Z,90.73
2022-11-21T17:41:24.559Z,91.17
2022-11-21T17:43:57.750Z,91.02
2022-11-21T17:46:25.850Z,91.36
2022-11-21T17:48:57.084Z,91.66
2022-11-21T17:51:34.339Z,91.00
2022-11-21T17:54:01.999Z,91.19
2022-11-21T17:56:34.484Z,91.41
2022-11-21T17:59:02.767Z,91.64
2022-11-21T18:01:30.032Z,92.04
2022-11-21T18:04:10.305Z,91.42
2022-11-21T18:06:41.441Z,91.49
2022-11-21T18:09:10.748Z,91.90
2022-11-21T18:11:40.277Z,91.40
2022-11-21T18:14:08.600Z,91.25
2022-11-21T18:16:35.153Z,91.85
2022-11-21T18:19:02.699Z,91.68
2022-11-21T18:21:31.966Z,91.55
2022-11-21T18:24:00.165Z,92.41
2022-11-21T18:26:30.094Z,92.57
2022-11-21T18:31:51.050Z,93.02
2022-11-21T18:34:17.608Z,92.38
2022-11-21T18:36:44.232Z,91.86
2022-11-21T18:39:14.759Z,92.50
2022-11-21T18:41:44.050Z,92.54
2022-11-21T18:44:14.649Z,93.14
2022-11-21T18:46:43.638Z,93.23
2022-11-21T18:49:10.113Z,93.16
2022-11-21T18:51:37.091Z,93.87
2022-11-21T18:54:07.786Z,93.19
2022-11-21T18:56:34.868Z,93.15
2022-11-21T18:59:03.205Z,93.42
2022-11-21T19:01:30.168Z,93.57
2022-11-21T19:03:56.854Z,94.46
2022-11-21T19:06:25.645Z,95.56
2022-11-21T19:08:54.769Z,96.05
2022-11-21T19:11:24.813Z,97.08
2022-11-21T19:13:52.637Z,97.31
2022-11-21T19:16:21.133Z,97.59
2022-11-21T19:19:00.184Z,98.01
2022-11-21T19:21:38.753Z,98.68
2022-11-21T19:24:09.753Z,98.68
2022-11-21T19:26:36.285Z,98.58
2022-11-21T19:29:02.783Z,98.34
2022-11-21T19:31:29.552Z,98.35
2022-11-21T19:33:58.408Z,98.48
2022-11-21T19:36:25.357Z,98.29
2022-11-21T19:38:52.060Z,98.29
2022-11-21T19:41:25.867Z,98.45
2022-11-21T19:43:54.629Z,98.39
2022-11-21T19:46:23.193Z,98.78
2022-11-21T19:48:51.843Z,98.15
2022-11-21T19:51:19.864Z,98.22
2022-11-21T19:53:46.724Z,99.28
2022-11-21T19:56:24.762Z,99.31
2022-11-21T19:58:52.153Z,99.46
2022-11-21T20:01:24.478Z,99.44
2022-11-21T20:03:54.329Z,99.94
2022-11-21T20:06:24.221Z,100.00
2022-11-21T20:08:54.394Z,99.80
2022-11-21T20:11:21.872Z,99.05
2022-11-21T20:13:49.708Z,98.93
2022-11-21T20:16:22.717Z,98.98
2022-11-21T20:18:50.925Z,98.79
2022-11-21T20:21:18.735Z,98.69
2022-11-21T20:23:49.124Z,99.04
2022-11-21T20:26:17.910Z,99.43
2022-11-21T20:28:44.711Z,99.69
2022-11-21T20:31:14.728Z,99.93
2022-11-21T20:33:43.376Z,100.00
2022-11-21T20:36:18.614Z,100.00
2022-11-21T20:38:53.772Z,100.00
2022-11-21T20:41:25.710Z,100.00
2022-11-21T20:45:30.100Z,99.75
2022-11-21T20:47:07.506Z,99.80
2022-11-21T20:49:34.179Z,99.87
2022-11-21T20:54:47.143Z,99.70
2022-11-21T20:57:15.529Z,100.00
2022-11-21T20:59:42.477Z,99.92
2022-11-21T21:02:12.548Z,99.71
2022-11-21T21:04:39.340Z,100.00
2022-11-21T21:07:05.889Z,99.87
2022-11-21T21:09:32.525Z,99.87
2022-11-21T21:11:59.203Z,99.50
2022-11-21T21:14:25.854Z,99.70
2022-11-21T21:16:52.280Z,99.25
2022-11-21T21:19:19.058Z,99.41
2022-11-21T21:21:45.543Z,99.69
2022-11-21T21:24:12.758Z,100.00
2022-11-21T21:26:45.222Z,100.00
2022-11-21T21:29:14.385Z,99.90
2022-11-21T21:31:46.753Z,99.44
2022-11-21T21:34:16.398Z,99.72
2022-11-21T21:36:42.888Z,100.00
2022-11-21T21:39:09.369Z,100.00
2022-11-21T21:41:39.775Z,99.83
2022-11-21T21:44:06.433Z,100.00
2022-11-21T21:46:33.056Z,99.88
2022-11-21T21:48:59.700Z,99.37
2022-11-21T21:51:28.420Z,98.82
2022-11-21T21:53:57.004Z,98.72
2022-11-21T21:56:25.055Z,98.61
2022-11-21T21:58:51.809Z,98.30
2022-11-21T22:01:21.175Z,98.39
2022-11-21T22:03:48.594Z,97.94
2022-11-21T22:06:17.793Z,98.10
2022-11-21T22:08:45.924Z,97.84
2022-11-21T22:11:15.746Z,98.38
2022-11-21T22:13:44.244Z,98.72
2022-11-21T22:16:12.746Z,98.69
2022-11-21T22:18:39.705Z,98.00
2022-11-21T22:21:24.445Z,98.51
2022-11-21T22:24:23.025Z,98.00
2022-11-21T22:26:37.866Z,98.66
2022-11-21T22:29:04.469Z,97.93
2022-11-21T22:31:34.316Z,97.47
2022-11-21T22:34:00.965Z,98.24
2022-11-21T22:36:27.673Z,98.25
2022-11-21T22:38:55.662Z,98.50
2022-11-21T22:41:24.780Z,98.37
2022-11-21T22:43:56.999Z,98.77
2022-11-21T22:46:25.597Z,98.33
2022-11-21T22:48:52.305Z,98.48
2022-11-21T22:51:24.594Z,98.78
2022-11-21T22:53:51.327Z,98.52
2022-11-21T22:56:20.780Z,98.44
2022-11-21T22:58:48.188Z,98.20
2022-11-21T23:01:20.615Z,98.44
2022-11-21T23:03:47.648Z,98.76
2022-11-21T23:06:20.419Z,98.31
2022-11-21T23:08:47.633Z,98.54
2022-11-21T23:11:26.060Z,98.83
2022-11-21T23:13:53.409Z,98.79
2022-11-21T23:16:22.005Z,98.89
2022-11-21T23:18:49.145Z,98.68
2022-11-21T23:21:15.802Z,99.09
2022-11-21T23:23:43.854Z,99.44
2022-11-21T23:26:11.311Z,97.89
2022-11-21T23:28:38.079Z,98.65
2022-11-21T23:31:04.516Z,98.27
2022-11-21T23:33:31.011Z,98.27
2022-11-21T23:35:57.708Z,97.20
2022-11-21T23:38:24.194Z,96.88
2022-11-21T23:40:50.863Z,97.65
2022-11-21T23:43:18.551Z,97.49
2022-11-21T23:45:49.678Z,97.17
2022-11-21T23:48:16.327Z,96.92
2022-11-21T23:50:42.804Z,96.60
2022-11-21T23:53:09.283Z,96.39
2022-11-21T23:55:36.051Z,96.66
2022-11-21T23:58:03.469Z,96.05
